Time;durP1;ratioP1;P1;durP2;ratioP2;P2;SDS_P1;SDS_P2;PMS_P1;PMS_P2;Temp;Humidity;BMP_temperature;BMP_pressure;BME280_temperature;BME280_humidity;BME280_pressure;Samples;Min_cycle;Max_cycle;Signal;HPM_P1;HPM_P2
2022/04/26 03:37:34;;;;;;;12.00;10.83;;;;;;;;;;5115031;28;20424;-55
2022/04/26 03:40:00;;;;;;;12.77;10.77;;;;;;;;;;5114898;28;20432;-55
2022/04/26 03:42:26;;;;;;;12.60;11.30;;;;;;;;;;5114893;28;20239;-54
2022/04/26 03:44:52;;;;;;;12.90;11.50;;;;;;;;;;5114644;28;20468;-55
2022/04/26 03:47:18;;;;;;;12.10;10.97;;;;;;;;;;5114769;28;20276;-55
2022/04/26 03:49:44;;;;;;;11.60;10.40;;;;;;;;;;5114907;28;20233;-55
2022/04/26 03:52:12;;;;;;;13.00;10.57;;;;;;;;;;5114552;28;20240;-55
2022/04/26 03:54:38;;;;;;;11.80;10.47;;;;;;;;;;5114622;28;20457;-55
2022/04/26 03:57:04;;;;;;;12.83;10.57;;;;;;;;;;5114256;28;20459;-55
2022/04/26 03:59:30;;;;;;;10.67;9.63;;;;;;;;;;5114691;28;20198;-55
2022/04/26 04:01:56;;;;;;;11.37;10.17;;;;;;;;;;5114516;28;20439;-54
2022/04/26 04:04:22;;;;;;;11.40;10.20;;;;;;;;;;5114476;28;20436;-54
2022/04/26 04:06:48;;;;;;;11.73;10.10;;;;;;;;;;5114143;28;20592;-55
2022/04/26 04:09:15;;;;;;;12.57;10.53;;;;;;;;;;5114096;28;20198;-55
2022/04/26 04:11:41;;;;;;;12.73;11.43;;;;;;;;;;5114448;28;20451;-54
2022/04/26 04:14:07;;;;;;;12.47;11.07;;;;;;;;;;5113941;28;20534;-54
2022/04/26 04:16:33;;;;;;;12.83;10.77;;;;;;;;;;5114306;28;20187;-55
2022/04/26 04:19:17;;;;;;;11.60;10.40;;;;;;;;;;5114164;28;20334;-54
2022/04/26 04:21:45;;;;;;;12.90;11.07;;;;;;;;;;5114334;28;20198;-55
2022/04/26 04:24:11;;;;;;;13.20;11.03;;;;;;;;;;5113942;28;20459;-54
2022/04/26 04:26:38;;;;;;;11.30;10.20;;;;;;;;;;5113634;28;20475;-55
2022/04/26 04:29:05;;;;;;;13.97;11.53;;;;;;;;;;5112789;28;20544;-54
2022/04/26 04:31:32;;;;;;;12.83;11.53;;;;;;;;;;5114112;28;20876;-55
2022/04/26 04:33:58;;;;;;;13.80;11.93;;;;;;;;;;5113933;28;20858;-54
2022/04/26 04:36:24;;;;;;;16.83;11.63;;;;;;;;;;5113576;28;20440;-55
2022/04/26 04:38:50;;;;;;;15.23;12.57;;;;;;;;;;5113740;28;20230;-55
2022/04/26 04:41:16;;;;;;;14.20;11.17;;;;;;;;;;5112020;28;20194;-55
2022/04/26 04:43:43;;;;;;;13.43;11.23;;;;;;;;;;5113788;28;20198;-55
2022/04/26 04:46:09;;;;;;;15.20;11.30;;;;;;;;;;5113510;28;20229;-55
2022/04/26 04:48:35;;;;;;;12.40;11.17;;;;;;;;;;5113582;28;20838;-55
2022/04/26 04:51:01;;;;;;;12.87;10.73;;;;;;;;;;5113536;28;20284;-55
2022/04/26 04:53:27;;;;;;;12.80;11.40;;;;;;;;;;5111707;28;20198;-55
2022/04/26 04:55:53;;;;;;;13.83;11.70;;;;;;;;;;5113491;28;20510;-55
2022/04/26 04:58:19;;;;;;;12.27;11.07;;;;;;;;;;5113416;28;20432;-55
2022/04/26 05:00:46;;;;;;;14.43;12.23;;;;;;;;;;5113341;28;20226;-55
2022/04/26 05:03:12;;;;;;;12.90;11.60;;;;;;;;;;5113239;28;20198;-55
2022/04/26 05:05:38;;;;;;;18.03;11.90;;;;;;;;;;5112912;28;20841;-55
2022/04/26 05:08:05;;;;;;;12.47;11.17;;;;;;;;;;5111753;28;20637;-55
2022/04/26 05:10:33;;;;;;;16.90;11.87;;;;;;;;;;5113188;28;20436;-55
2022/04/26 05:12:59;;;;;;;11.10;10.00;;;;;;;;;;5113263;28;20783;-55
2022/04/26 05:15:25;;;;;;;13.07;10.63;;;;;;;;;;5112392;28;20471;-55
2022/04/26 05:17:53;;;;;;;12.73;11.43;;;;;;;;;;5112657;28;20217;-55
2022/04/26 05:20:19;;;;;;;13.67;11.17;;;;;;;;;;5112915;28;20440;-55
2022/04/26 05:25:33;;;;;;;11.93;10.03;;;;;;;;;;5112830;28;20525;-55
2022/04/26 05:27:58;;;;;;;9.93;8.93;;;;;;;;;;5112966;28;20560;-55
2022/04/26 05:30:24;;;;;;;10.70;9.60;;;;;;;;;;5112668;28;20434;-55
2022/04/26 05:32:50;;;;;;;10.00;8.23;;;;;;;;;;5112780;28;20262;-55
2022/04/26 05:35:20;;;;;;;9.50;8.07;;;;;;;;;;5112503;28;20198;-55
2022/04/26 05:37:47;;;;;;;8.83;7.93;;;;;;;;;;5112648;28;20253;-55
2022/04/26 05:40:13;;;;;;;9.80;7.43;;;;;;;;;;5112164;28;20233;-55
2022/04/26 05:42:39;;;;;;;10.47;6.93;;;;;;;;;;5112579;28;20234;-55
2022/04/26 05:45:05;;;;;;;6.87;6.17;;;;;;;;;;5112332;28;20687;-55
2022/04/26 05:47:31;;;;;;;6.63;5.90;;;;;;;;;;5112252;28;20205;-55
2022/04/26 05:49:57;;;;;;;7.70;6.80;;;;;;;;;;5112426;28;20186;-55
2022/04/26 05:52:24;;;;;;;7.30;6.40;;;;;;;;;;5112026;28;20726;-55
2022/04/26 05:54:50;;;;;;;5.60;5.10;;;;;;;;;;5112277;28;20201;-55
2022/04/26 05:57:16;;;;;;;6.07;5.47;;;;;;;;;;5112088;28;20197;-55
2022/04/26 05:59:42;;;;;;;7.07;6.20;;;;;;;;;;5112224;28;20620;-55
2022/04/26 06:02:08;;;;;;;7.23;5.47;;;;;;;;;;5112106;28;20318;-55
2022/04/26 06:04:37;;;;;;;6.97;5.70;;;;;;;;;;5111940;28;20198;-55
2022/04/26 06:07:03;;;;;;;7.57;5.97;;;;;;;;;;5112066;28;20233;-55
2022/04/26 06:09:31;;;;;;;7.33;5.20;;;;;;;;;;5112071;28;20223;-55
2022/04/26 06:11:57;;;;;;;6.13;5.53;;;;;;;;;;5112197;28;20212;-55
2022/04/26 06:14:23;;;;;;;8.73;5.03;;;;;;;;;;5111793;28;20238;-55
2022/04/26 06:16:49;;;;;;;6.77;5.07;;;;;;;;;;5112259;28;20200;-55
2022/04/26 06:19:15;;;;;;;5.50;4.87;;;;;;;;;;5112176;28;20251;-55
2022/04/26 06:21:42;;;;;;;6.07;4.67;;;;;;;;;;5111974;28;20215;-55
2022/04/26 06:24:08;;;;;;;6.43;4.77;;;;;;;;;;5111774;28;20222;-55
2022/04/26 06:26:35;;;;;;;6.93;4.60;;;;;;;;;;5112302;28;20229;-54
2022/04/26 06:29:01;;;;;;;5.47;4.93;;;;;;;;;;5112004;28;20197;-54
2022/04/26 06:31:27;;;;;;;5.83;5.07;;;;;;;;;;5111958;28;20281;-55
2022/04/26 06:33:53;;;;;;;4.97;4.47;;;;;;;;;;5112058;28;20201;-54
2022/04/26 06:36:20;;;;;;;5.10;4.60;;;;;;;;;;5111875;28;20186;-55
2022/04/26 06:38:46;;;;;;;5.50;5.00;;;;;;;;;;5112050;28;20193;-54
2022/04/26 06:41:12;;;;;;;5.20;4.70;;;;;;;;;;5112023;28;20237;-54
2022/04/26 06:43:39;;;;;;;5.97;4.73;;;;;;;;;;5111847;28;20672;-54
2022/04/26 06:46:05;;;;;;;5.03;4.53;;;;;;;;;;5111542;28;20245;-54
2022/04/26 06:48:31;;;;;;;5.40;4.90;;;;;;;;;;5111675;28;20588;-54
2022/04/26 06:50:57;;;;;;;5.27;4.77;;;;;;;;;;5111834;28;20277;-55
2022/04/26 06:53:23;;;;;;;6.27;4.70;;;;;;;;;;5115062;28;20194;-55
2022/04/26 06:55:49;;;;;;;7.63;4.47;;;;;;;;;;5115718;28;20198;-55
2022/04/26 06:58:15;;;;;;;8.40;4.70;;;;;;;;;;5115749;28;20191;-55
2022/04/26 07:00:43;;;;;;;6.87;4.60;;;;;;;;;;5115813;28;20207;-56
2022/04/26 07:03:09;;;;;;;6.07;4.83;;;;;;;;;;5115622;28;20243;-55
2022/04/26 07:05:35;;;;;;;6.60;4.80;;;;;;;;;;5115507;28;20317;-55
2022/04/26 07:08:01;;;;;;;5.43;4.53;;;;;;;;;;5115505;28;20226;-55
2022/04/26 07:10:28;;;;;;;6.97;5.03;;;;;;;;;;5115538;28;20230;-55
2022/04/26 07:12:54;;;;;;;6.53;4.37;;;;;;;;;;5115409;28;20285;-55
2022/04/26 07:15:20;;;;;;;5.47;4.53;;;;;;;;;;5115083;28;20265;-55
2022/04/26 07:17:48;;;;;;;6.23;4.77;;;;;;;;;;5115419;28;20229;-55
2022/04/26 07:20:14;;;;;;;6.43;4.60;;;;;;;;;;5115138;28;20221;-55
2022/04/26 07:22:40;;;;;;;4.80;4.40;;;;;;;;;;5115293;28;20198;-55
2022/04/26 07:25:07;;;;;;;6.53;5.00;;;;;;;;;;5114964;28;20787;-55
2022/04/26 07:27:33;;;;;;;5.53;4.63;;;;;;;;;;5115008;28;20254;-55
2022/04/26 07:29:59;;;;;;;5.87;4.33;;;;;;;;;;5115168;28;20617;-54
2022/04/26 07:35:12;;;;;;;5.57;4.70;;;;;;;;;;5114613;28;20357;-55
2022/04/26 07:37:38;;;;;;;7.10;3.90;;;;;;;;;;5114457;28;20575;-54
2022/04/26 07:40:05;;;;;;;4.70;4.10;;;;;;;;;;5114716;28;20281;-56
2022/04/26 07:42:31;;;;;;;4.83;4.23;;;;;;;;;;5114812;28;20438;-54
2022/04/26 07:44:56;;;;;;;7.47;4.37;;;;;;;;;;5114860;28;20670;-55
2022/04/26 07:47:24;;;;;;;4.83;4.30;;;;;;;;;;5114564;28;20320;-55
2022/04/26 07:49:50;;;;;;;4.47;3.73;;;;;;;;;;5112645;28;20194;-55
2022/04/26 07:52:18;;;;;;;5.10;4.43;;;;;;;;;;5113930;28;20199;-56
2022/04/26 07:54:45;;;;;;;4.27;3.93;;;;;;;;;;5114574;28;20387;-55
2022/04/26 07:57:12;;;;;;;4.93;4.53;;;;;;;;;;5114392;28;20198;-55
2022/04/26 07:59:38;;;;;;;6.07;4.97;;;;;;;;;;5114266;28;20198;-56
2022/04/26 08:02:06;;;;;;;4.60;4.20;;;;;;;;;;5114271;28;20194;-55
2022/04/26 08:04:32;;;;;;;5.20;4.63;;;;;;;;;;5114103;28;20204;-55
2022/04/26 08:06:58;;;;;;;7.10;4.80;;;;;;;;;;5114113;28;20600;-55
2022/04/26 08:09:26;;;;;;;8.60;4.70;;;;;;;;;;5113880;28;20207;-55
2022/04/26 08:11:52;;;;;;;7.13;5.00;;;;;;;;;;5114120;28;20301;-55
2022/04/26 08:14:20;;;;;;;5.40;4.63;;;;;;;;;;5113601;28;20312;-56
2022/04/26 08:16:46;;;;;;;9.50;4.50;;;;;;;;;;5114053;27;20191;-55
2022/04/26 08:19:12;;;;;;;6.80;4.73;;;;;;;;;;5113799;28;20199;-55
2022/04/26 08:21:38;;;;;;;5.43;4.50;;;;;;;;;;5113785;28;20284;-55
2022/04/26 08:29:34;;;;;;;5.43;4.40;;;;;;;;;;5113632;28;20258;-55
2022/04/26 08:32:00;;;;;;;4.30;3.90;;;;;;;;;;5113752;28;20277;-56
2022/04/26 08:34:28;;;;;;;5.80;4.33;;;;;;;;;;5113419;28;20215;-56
2022/04/26 08:36:54;;;;;;;4.33;3.93;;;;;;;;;;5113646;28;20227;-56
2022/04/26 08:39:21;;;;;;;6.30;4.07;;;;;;;;;;5113214;28;20245;-56
2022/04/26 08:41:47;;;;;;;5.37;4.27;;;;;;;;;;5113542;28;20197;-56
2022/04/26 08:44:14;;;;;;;5.97;3.90;;;;;;;;;;5113305;28;20656;-56
2022/04/26 08:52:09;;;;;;;9.07;4.53;;;;;;;;;;5113312;28;20205;-55
2022/04/26 08:54:35;;;;;;;4.37;3.77;;;;;;;;;;5112939;28;20228;-54
2022/04/26 08:57:02;;;;;;;4.57;4.10;;;;;;;;;;5113464;28;20661;-55
2022/04/26 08:59:31;;;;;;;9.03;4.70;;;;;;;;;;5113172;28;20200;-55
2022/04/26 09:02:18;;;;;;;5.53;4.63;;;;;;;;;;5113241;27;20258;-55
2022/04/26 09:04:44;;;;;;;5.93;4.40;;;;;;;;;;5113288;28;20214;-55
2022/04/26 09:07:11;;;;;;;4.40;3.93;;;;;;;;;;5112807;28;20221;-55
2022/04/26 09:09:38;;;;;;;6.13;3.80;;;;;;;;;;5112905;28;20198;-55
2022/04/26 09:12:09;;;;;;;6.27;4.17;;;;;;;;;;5112947;28;20201;-55
2022/04/26 09:14:37;;;;;;;5.20;4.53;;;;;;;;;;5112002;28;20290;-55
2022/04/26 09:17:04;;;;;;;8.07;4.77;;;;;;;;;;5112804;28;20735;-55
2022/04/26 09:19:43;;;;;;;4.13;3.73;;;;;;;;;;5112818;28;20194;-55
2022/04/26 09:22:15;;;;;;;4.77;4.20;;;;;;;;;;5112665;28;20221;-55
2022/04/26 09:24:53;;;;;;;11.03;4.93;;;;;;;;;;5112697;28;20748;-55
2022/04/26 09:27:20;;;;;;;9.70;3.93;;;;;;;;;;5112425;28;20711;-55
2022/04/26 09:29:47;;;;;;;5.03;3.67;;;;;;;;;;5112566;28;20278;-55
2022/04/26 09:32:13;;;;;;;4.47;3.97;;;;;;;;;;5112507;28;20217;-55
2022/04/26 09:34:40;;;;;;;7.07;3.80;;;;;;;;;;5112395;28;20195;-55
2022/04/26 09:37:06;;;;;;;6.63;4.07;;;;;;;;;;5112248;28;20213;-54
2022/04/26 09:39:32;;;;;;;4.67;3.70;;;;;;;;;;5112198;28;20198;-55
2022/04/26 09:41:58;;;;;;;5.47;4.37;;;;;;;;;;5112316;28;20560;-55
2022/04/26 09:44:30;;;;;;;4.37;3.97;;;;;;;;;;5112684;28;20213;-57
2022/04/26 09:46:57;;;;;;;4.10;3.70;;;;;;;;;;5112450;28;20655;-57
2022/04/26 09:49:24;;;;;;;4.93;3.70;;;;;;;;;;5112340;28;20195;-56
2022/04/26 09:51:54;;;;;;;4.67;4.03;;;;;;;;;;5112372;28;20198;-52
2022/04/26 09:54:20;;;;;;;4.40;4.00;;;;;;;;;;5112384;28;20690;-56
2022/04/26 09:56:47;;;;;;;5.30;3.60;;;;;;;;;;5112364;28;20593;-55
2022/04/26 09:59:14;;;;;;;5.97;3.87;;;;;;;;;;5112520;28;20193;-56
2022/04/26 10:01:41;;;;;;;4.97;4.07;;;;;;;;;;5112450;28;20202;-55
2022/04/26 10:04:09;;;;;;;5.30;4.00;;;;;;;;;;5112374;28;20196;-56
2022/04/26 10:06:36;;;;;;;7.27;4.13;;;;;;;;;;5112394;28;20230;-55
2022/04/26 10:09:02;;;;;;;4.60;4.00;;;;;;;;;;5112151;28;20725;-56
2022/04/26 10:11:28;;;;;;;4.30;3.40;;;;;;;;;;5111485;28;20251;-55
2022/04/26 10:13:55;;;;;;;5.93;4.20;;;;;;;;;;5110764;28;20266;-56
2022/04/26 10:16:21;;;;;;;7.80;4.17;;;;;;;;;;5111341;28;20190;-55
2022/04/26 10:18:48;;;;;;;5.33;4.07;;;;;;;;;;5111649;28;20201;-55
2022/04/26 10:21:38;;;;;;;6.97;4.20;;;;;;;;;;5111856;28;20194;-55
2022/04/26 10:24:14;;;;;;;6.07;3.97;;;;;;;;;;5111517;28;20665;-55
2022/04/26 10:26:40;;;;;;;5.93;3.47;;;;;;;;;;5112566;28;20322;-56
2022/04/26 10:29:27;;;;;;;4.07;3.33;;;;;;;;;;5115954;28;20202;-55
2022/04/26 10:32:01;;;;;;;3.90;3.60;;;;;;;;;;5110701;28;20204;-56
2022/04/26 10:34:31;;;;;;;4.20;3.80;;;;;;;;;;5115756;28;20667;-55
2022/04/26 10:37:00;;;;;;;4.30;3.90;;;;;;;;;;5115762;28;20573;-56
2022/04/26 10:39:27;;;;;;;4.57;3.73;;;;;;;;;;5115655;28;20224;-55
2022/04/26 10:41:54;;;;;;;6.33;4.00;;;;;;;;;;5115680;28;20566;-56
2022/04/26 10:44:26;;;;;;;6.17;3.80;;;;;;;;;;5115695;28;20686;-56
2022/04/26 10:47:07;;;;;;;5.23;3.73;;;;;;;;;;5115413;28;20729;-55
2022/04/26 10:49:42;;;;;;;3.87;3.50;;;;;;;;;;5115318;28;20195;-55
2022/04/26 10:52:26;;;;;;;7.20;4.23;;;;;;;;;;5115335;28;20627;-55
2022/04/26 10:55:04;;;;;;;5.57;4.00;;;;;;;;;;5115322;27;20203;-55
2022/04/26 10:57:30;;;;;;;4.40;3.67;;;;;;;;;;5115464;28;20722;-55
2022/04/26 10:59:58;;;;;;;7.07;3.80;;;;;;;;;;5115441;28;20282;-55
2022/04/26 11:02:25;;;;;;;4.27;3.47;;;;;;;;;;5115608;28;20206;-55
2022/04/26 11:04:55;;;;;;;5.93;3.90;;;;;;;;;;5115641;28;20191;-55
2022/04/26 11:07:25;;;;;;;4.30;3.90;;;;;;;;;;5115427;28;20586;-55
2022/04/26 11:09:54;;;;;;;5.20;3.90;;;;;;;;;;5115711;27;20288;-55
2022/04/26 11:12:22;;;;;;;4.97;3.80;;;;;;;;;;5115240;28;20599;-56
2022/04/26 11:14:49;;;;;;;6.00;3.93;;;;;;;;;;5115293;28;20240;-55
2022/04/26 11:17:16;;;;;;;5.27;3.87;;;;;;;;;;5115536;28;20196;-55
2022/04/26 11:19:47;;;;;;;4.97;3.40;;;;;;;;;;5115588;28;20207;-55
2022/04/26 11:22:14;;;;;;;6.03;4.10;;;;;;;;;;5115488;28;20567;-55
2022/04/26 11:30:15;;;;;;;4.57;3.80;;;;;;;;;;5115355;28;20202;-56
2022/04/26 11:32:42;;;;;;;3.93;3.53;;;;;;;;;;5115301;28;20202;-55
2022/04/26 11:35:09;;;;;;;3.40;3.10;;;;;;;;;;5115108;28;20568;-56
2022/04/26 11:37:43;;;;;;;5.97;3.10;;;;;;;;;;5114335;28;20436;-56
2022/04/26 11:40:10;;;;;;;7.40;3.40;;;;;;;;;;5115096;28;20659;-56
2022/04/26 11:42:37;;;;;;;4.97;3.60;;;;;;;;;;5114981;28;20659;-55
2022/04/26 11:45:05;;;;;;;5.93;3.63;;;;;;;;;;5115040;28;20207;-55
2022/04/26 11:47:44;;;;;;;5.40;4.00;;;;;;;;;;5114940;28;20714;-55
2022/04/26 11:50:11;;;;;;;5.17;3.87;;;;;;;;;;5115043;28;20203;-55
2022/04/26 11:52:37;;;;;;;4.03;3.70;;;;;;;;;;5114745;28;20203;-56
2022/04/26 11:55:04;;;;;;;6.30;4.20;;;;;;;;;;5114915;28;20279;-56
2022/04/26 11:57:31;;;;;;;5.07;3.83;;;;;;;;;;5114883;28;20208;-55
2022/04/26 11:59:59;;;;;;;4.30;3.90;;;;;;;;;;5114874;28;20204;-55
2022/04/26 12:02:25;;;;;;;3.83;3.30;;;;;;;;;;5114596;28;20208;-55
2022/04/26 12:04:51;;;;;;;4.93;3.80;;;;;;;;;;5114640;28;20197;-56
2022/04/26 12:07:18;;;;;;;5.50;4.00;;;;;;;;;;5114465;28;20290;-56
2022/04/26 12:09:44;;;;;;;5.07;3.37;;;;;;;;;;5114733;28;20244;-55
2022/04/26 12:12:12;;;;;;;4.97;3.73;;;;;;;;;;5114583;28;20207;-56
2022/04/26 12:14:41;;;;;;;4.20;3.67;;;;;;;;;;5114255;28;20501;-55
2022/04/26 12:17:18;;;;;;;4.80;3.80;;;;;;;;;;5114399;28;20226;-56
2022/04/26 12:19:50;;;;;;;4.60;3.67;;;;;;;;;;5114425;28;20226;-55
2022/04/26 12:22:17;;;;;;;4.90;3.30;;;;;;;;;;5114196;28;20243;-55
2022/04/26 12:24:47;;;;;;;6.83;3.47;;;;;;;;;;5114301;28;20218;-55
2022/04/26 12:27:14;;;;;;;7.47;3.77;;;;;;;;;;5114034;28;20223;-55
2022/04/26 12:29:42;;;;;;;8.60;3.50;;;;;;;;;;5113968;28;20199;-56
2022/04/26 12:32:08;;;;;;;4.87;3.60;;;;;;;;;;5113931;28;20290;-56
2022/04/26 12:34:36;;;;;;;4.07;3.67;;;;;;;;;;5113757;28;20780;-55
2022/04/26 12:37:06;;;;;;;3.43;3.10;;;;;;;;;;5113939;28;20204;-55
2022/04/26 12:39:42;;;;;;;8.70;4.00;;;;;;;;;;5113659;28;20221;-55
2022/04/26 12:42:09;;;;;;;4.60;3.67;;;;;;;;;;5113873;28;20194;-55
2022/04/26 12:44:37;;;;;;;5.60;3.20;;;;;;;;;;5113676;28;20285;-55
2022/04/26 12:52:50;;;;;;;6.53;3.20;;;;;;;;;;5113681;28;20197;-55
2022/04/26 12:55:27;;;;;;;4.33;3.00;;;;;;;;;;5113605;28;20206;-56
2022/04/26 12:57:54;;;;;;;5.03;3.67;;;;;;;;;;5113610;28;20194;-56
2022/04/26 13:00:20;;;;;;;6.47;3.50;;;;;;;;;;5113442;28;20195;-55
2022/04/26 13:02:47;;;;;;;6.00;3.63;;;;;;;;;;5113533;28;20199;-54
2022/04/26 13:05:15;;;;;;;3.93;2.63;;;;;;;;;;5113253;28;20692;-55
2022/04/26 13:07:41;;;;;;;3.50;3.13;;;;;;;;;;5113161;28;20223;-55
2022/04/26 13:10:07;;;;;;;4.03;3.17;;;;;;;;;;5113061;28;20483;-55
2022/04/26 13:12:33;;;;;;;3.43;3.10;;;;;;;;;;5112832;28;20203;-55
2022/04/26 13:15:00;;;;;;;3.77;3.23;;;;;;;;;;5112703;28;20334;-54
2022/04/26 13:17:26;;;;;;;3.37;2.80;;;;;;;;;;5112969;28;20554;-55
2022/04/26 13:19:52;;;;;;;4.20;3.17;;;;;;;;;;5112978;28;20220;-55
2022/04/26 13:22:21;;;;;;;4.07;3.40;;;;;;;;;;5113028;28;20563;-54
2022/04/26 13:24:47;;;;;;;5.83;3.67;;;;;;;;;;5113118;28;20235;-55
2022/04/26 13:27:13;;;;;;;4.27;2.87;;;;;;;;;;5112649;28;20582;-54
2022/04/26 13:29:39;;;;;;;4.73;2.83;;;;;;;;;;5112545;28;20257;-54
2022/04/26 13:32:05;;;;;;;4.63;3.40;;;;;;;;;;5112585;28;20671;-54
2022/04/26 13:34:32;;;;;;;3.77;3.17;;;;;;;;;;5112525;28;20729;-54
2022/04/26 13:36:58;;;;;;;5.77;3.40;;;;;;;;;;5110574;28;20213;-55
2022/04/26 13:39:26;;;;;;;5.70;3.47;;;;;;;;;;5112672;28;20205;-54
2022/04/26 13:41:52;;;;;;;4.07;3.60;;;;;;;;;;5112450;28;20711;-55
2022/04/26 13:44:19;;;;;;;3.90;3.60;;;;;;;;;;5112647;28;20208;-56
2022/04/26 13:46:45;;;;;;;6.37;3.60;;;;;;;;;;5112768;28;20235;-56
2022/04/26 13:49:11;;;;;;;6.03;4.73;;;;;;;;;;5112464;28;20222;-56
2022/04/26 13:51:37;;;;;;;5.03;4.27;;;;;;;;;;5112475;28;20197;-56
2022/04/26 13:54:04;;;;;;;5.07;4.40;;;;;;;;;;5112457;28;20663;-56
2022/04/26 13:56:31;;;;;;;5.97;4.73;;;;;;;;;;5112619;28;20195;-56
2022/04/26 13:58:57;;;;;;;6.73;4.77;;;;;;;;;;5112663;28;20252;-56
2022/04/26 14:01:23;;;;;;;7.03;5.07;;;;;;;;;;5112149;28;20664;-55
2022/04/26 14:03:49;;;;;;;5.60;5.00;;;;;;;;;;5112497;28;20205;-52
2022/04/26 14:06:18;;;;;;;10.53;4.97;;;;;;;;;;5112225;28;20248;-54
2022/04/26 14:08:48;;;;;;;5.67;4.50;;;;;;;;;;5112531;28;20202;-53
2022/04/26 14:11:14;;;;;;;4.53;3.70;;;;;;;;;;5112566;28;20198;-53
2022/04/26 14:21:55;;;;;;;7.40;4.13;;;;;;;;;;5071630;28;20210;-54
2022/04/26 14:24:21;;;;;;;4.17;3.80;;;;;;;;;;5071700;28;20220;-54
2022/04/26 14:26:49;;;;;;;5.13;4.63;;;;;;;;;;5071701;28;20752;-54
2022/04/26 14:29:16;;;;;;;7.13;5.20;;;;;;;;;;5071746;28;20694;-55
2022/04/26 14:31:42;;;;;;;6.20;5.60;;;;;;;;;;5069868;28;20207;-54
2022/04/26 14:34:08;;;;;;;8.93;6.20;;;;;;;;;;5069998;28;20306;-55
2022/04/26 14:36:34;;;;;;;6.93;5.33;;;;;;;;;;5069602;28;20214;-55
2022/04/26 14:39:00;;;;;;;6.93;5.30;;;;;;;;;;5071464;28;20187;-54
2022/04/26 14:41:27;;;;;;;8.60;5.73;;;;;;;;;;5071185;28;20195;-54
2022/04/26 14:43:53;;;;;;;5.37;4.87;;;;;;;;;;5071195;28;20218;-55
2022/04/26 14:46:20;;;;;;;6.53;5.60;;;;;;;;;;5071020;28;20701;-54
2022/04/26 14:48:47;;;;;;;5.70;5.10;;;;;;;;;;5071126;28;20203;-54
2022/04/26 14:51:13;;;;;;;8.87;5.40;;;;;;;;;;5071235;28;20788;-55
2022/04/26 14:53:39;;;;;;;9.10;5.33;;;;;;;;;;5071010;28;20283;-54
2022/04/26 14:56:06;;;;;;;6.60;5.17;;;;;;;;;;5071114;28;20282;-55
2022/04/26 14:58:33;;;;;;;5.57;4.93;;;;;;;;;;5071370;28;20635;-55
2022/04/26 15:00:59;;;;;;;8.47;5.67;;;;;;;;;;5071199;28;20209;-55
2022/04/26 15:03:27;;;;;;;6.90;5.47;;;;;;;;;;5070857;28;20203;-54
2022/04/26 15:05:53;;;;;;;8.53;5.10;;;;;;;;;;5070789;28;20211;-56
2022/04/26 15:11:04;;;;;;;7.10;4.57;;;;;;;;;;5070979;28;20757;-55
2022/04/26 15:19:00;;;;;;;5.40;4.90;;;;;;;;;;5074687;28;20253;-54
2022/04/26 15:21:26;;;;;;;10.13;5.50;;;;;;;;;;5074529;28;20204;-54
2022/04/26 15:23:55;;;;;;;6.60;5.73;;;;;;;;;;5074607;28;20231;-55
2022/04/26 15:26:21;;;;;;;6.93;5.40;;;;;;;;;;5074493;28;20209;-55
2022/04/26 15:28:47;;;;;;;5.43;4.87;;;;;;;;;;5074732;28;20292;-55
2022/04/26 15:31:18;;;;;;;8.10;5.17;;;;;;;;;;5074598;28;20279;-55
2022/04/26 15:33:44;;;;;;;5.83;5.23;;;;;;;;;;5074588;28;20753;-55
2022/04/26 15:36:12;;;;;;;4.80;4.40;;;;;;;;;;5074368;28;20223;-55
2022/04/26 15:38:39;;;;;;;5.57;4.93;;;;;;;;;;5074387;28;20222;-55
2022/04/26 15:41:08;;;;;;;5.93;5.33;;;;;;;;;;5074518;28;20210;-55
2022/04/26 15:43:34;;;;;;;7.13;5.60;;;;;;;;;;5074291;28;20200;-55
2022/04/26 15:46:01;;;;;;;8.73;5.87;;;;;;;;;;5074280;28;20194;-55
2022/04/26 15:48:27;;;;;;;7.43;5.60;;;;;;;;;;5074232;28;20195;-55
2022/04/26 15:50:53;;;;;;;5.83;5.00;;;;;;;;;;5074345;28;20227;-55
2022/04/26 15:53:20;;;;;;;8.67;5.30;;;;;;;;;;5074097;28;20195;-55
2022/04/26 15:55:46;;;;;;;6.47;5.30;;;;;;;;;;5074374;28;20563;-55
2022/04/26 15:58:12;;;;;;;6.10;4.90;;;;;;;;;;5074203;28;20730;-55
2022/04/26 16:00:38;;;;;;;6.90;5.30;;;;;;;;;;5073976;28;20207;-55
2022/04/26 16:03:04;;;;;;;8.40;5.67;;;;;;;;;;5074076;28;20196;-56
2022/04/26 16:05:31;;;;;;;8.90;6.07;;;;;;;;;;5074112;28;20199;-55
2022/04/26 16:07:57;;;;;;;6.90;4.90;;;;;;;;;;5073758;28;20223;-55
2022/04/26 16:21:25;;;;;;;6.73;5.00;;;;;;;;;;5114436;28;20720;-55
2022/04/26 16:23:52;;;;;;;6.83;5.80;;;;;;;;;;5114338;28;20221;-56
2022/04/26 16:26:20;;;;;;;8.00;5.10;;;;;;;;;;5114170;28;20224;-55
2022/04/26 16:28:49;;;;;;;7.30;5.63;;;;;;;;;;5114300;28;20730;-55
2022/04/26 16:31:16;;;;;;;9.87;5.37;;;;;;;;;;5114086;28;20194;-55
2022/04/26 16:33:42;;;;;;;8.70;5.40;;;;;;;;;;5114203;28;20690;-55
2022/04/26 16:36:11;;;;;;;7.83;5.40;;;;;;;;;;5114063;28;20194;-55
2022/04/26 16:38:37;;;;;;;7.30;5.13;;;;;;;;;;5113898;28;20209;-55
2022/04/26 16:41:06;;;;;;;6.77;5.60;;;;;;;;;;5113687;28;20202;-55
2022/04/26 16:43:33;;;;;;;9.03;6.00;;;;;;;;;;5113925;28;20202;-55
2022/04/26 16:46:01;;;;;;;6.03;5.20;;;;;;;;;;5113949;28;20671;-55
2022/04/26 16:48:27;;;;;;;10.87;5.77;;;;;;;;;;5113830;27;20211;-55
2022/04/26 16:50:53;;;;;;;7.03;5.10;;;;;;;;;;5113666;28;20234;-55
2022/04/26 16:53:19;;;;;;;6.80;5.77;;;;;;;;;;5107437;28;20205;-55
2022/04/26 16:55:46;;;;;;;7.87;5.33;;;;;;;;;;5113615;28;20204;-55
2022/04/26 16:58:13;;;;;;;10.40;5.70;;;;;;;;;;5113654;28;20299;-55
2022/04/26 17:00:41;;;;;;;7.87;5.97;;;;;;;;;;5113317;28;20205;-57
2022/04/26 17:03:07;;;;;;;8.63;6.30;;;;;;;;;;5113247;28;20203;-56
2022/04/26 17:05:33;;;;;;;6.83;5.73;;;;;;;;;;5113181;28;20204;-56
2022/04/26 17:07:59;;;;;;;5.73;5.13;;;;;;;;;;5113055;28;20589;-56
2022/04/26 17:10:26;;;;;;;9.70;5.80;;;;;;;;;;5113010;28;20196;-56
2022/04/26 17:12:52;;;;;;;9.10;6.07;;;;;;;;;;5113186;28;20194;-56
2022/04/26 17:15:18;;;;;;;6.90;5.20;;;;;;;;;;5112755;28;20234;-54
2022/04/26 17:17:46;;;;;;;7.93;5.43;;;;;;;;;;5113057;28;20735;-56
2022/04/26 17:20:16;;;;;;;7.87;5.07;;;;;;;;;;5113068;28;20202;-56
2022/04/26 17:22:42;;;;;;;6.67;6.07;;;;;;;;;;5112893;28;20225;-55
2022/04/26 17:25:15;;;;;;;7.00;5.40;;;;;;;;;;5111475;28;20695;-56
2022/04/26 17:27:42;;;;;;;6.17;5.40;;;;;;;;;;5112883;28;20305;-55
2022/04/26 17:30:08;;;;;;;6.57;5.97;;;;;;;;;;5112743;28;20217;-56
2022/04/26 17:32:34;;;;;;;8.20;5.47;;;;;;;;;;5112759;28;20194;-56
2022/04/26 17:35:01;;;;;;;7.23;5.23;;;;;;;;;;5112429;28;20566;-55
2022/04/26 17:37:28;;;;;;;7.63;5.33;;;;;;;;;;5112496;28;20660;-54
2022/04/26 17:39:54;;;;;;;8.47;5.63;;;;;;;;;;5112690;28;20206;-56
2022/04/26 17:42:24;;;;;;;6.73;5.40;;;;;;;;;;5112771;28;20194;-56
2022/04/26 17:44:50;;;;;;;9.17;5.50;;;;;;;;;;5110984;28;20198;-55
2022/04/26 17:47:16;;;;;;;15.17;5.47;;;;;;;;;;5110858;28;20293;-56
2022/04/26 17:49:42;;;;;;;10.77;5.63;;;;;;;;;;5112605;28;20744;-56
2022/04/26 17:52:09;;;;;;;8.07;5.30;;;;;;;;;;5112396;28;20233;-55
2022/04/26 17:57:20;;;;;;;8.70;5.63;;;;;;;;;;5112561;28;20196;-55
2022/04/26 17:59:46;;;;;;;8.07;5.73;;;;;;;;;;5112694;28;20214;-55
2022/04/26 18:02:12;;;;;;;6.47;5.20;;;;;;;;;;5112515;28;20197;-56
2022/04/26 18:04:40;;;;;;;9.27;5.27;;;;;;;;;;5112392;28;20749;-55
2022/04/26 18:07:06;;;;;;;6.60;5.40;;;;;;;;;;5112082;28;20275;-55
2022/04/26 18:09:33;;;;;;;8.67;5.20;;;;;;;;;;5112259;28;20206;-56
2022/04/26 18:11:59;;;;;;;5.33;4.67;;;;;;;;;;5112356;28;20201;-56
2022/04/26 18:14:25;;;;;;;6.83;4.57;;;;;;;;;;5112121;28;20738;-56
2022/04/26 18:16:51;;;;;;;10.37;5.13;;;;;;;;;;5112505;28;20198;-55
2022/04/26 18:19:17;;;;;;;5.93;4.20;;;;;;;;;;5112183;28;20202;-54
2022/04/26 18:21:43;;;;;;;5.50;3.87;;;;;;;;;;5112181;28;20206;-56
2022/04/26 18:24:09;;;;;;;12.13;4.70;;;;;;;;;;5112116;28;20277;-54
2022/04/26 18:26:38;;;;;;;6.37;3.60;;;;;;;;;;5112081;28;20221;-55
2022/04/26 18:29:04;;;;;;;5.47;3.97;;;;;;;;;;5112201;28;20549;-55
2022/04/26 18:31:32;;;;;;;4.70;3.67;;;;;;;;;;5111653;28;20565;-55
2022/04/26 18:33:58;;;;;;;4.80;3.90;;;;;;;;;;5112221;28;20210;-56
2022/04/26 18:36:24;;;;;;;7.47;3.63;;;;;;;;;;5111804;28;20556;-56
2022/04/26 18:38:51;;;;;;;5.07;3.90;;;;;;;;;;5111825;28;20198;-55
2022/04/26 18:41:18;;;;;;;7.87;4.83;;;;;;;;;;5110165;28;20213;-56
2022/04/26 18:43:47;;;;;;;7.33;5.33;;;;;;;;;;5110364;28;20194;-55
2022/04/26 18:46:13;;;;;;;5.67;4.70;;;;;;;;;;5112152;28;20206;-55
2022/04/26 18:48:41;;;;;;;6.80;4.73;;;;;;;;;;5114115;28;20247;-56
2022/04/26 18:51:07;;;;;;;6.83;4.47;;;;;;;;;;5116003;28;20202;-56
2022/04/26 18:53:33;;;;;;;5.80;4.00;;;;;;;;;;5115865;28;20277;-55
2022/04/26 18:55:59;;;;;;;6.90;4.20;;;;;;;;;;5114827;28;20198;-55
2022/04/26 18:58:27;;;;;;;4.80;3.40;;;;;;;;;;5115886;28;20285;-53
2022/04/26 19:00:56;;;;;;;7.67;3.90;;;;;;;;;;5116077;28;20222;-55
2022/04/26 19:03:22;;;;;;;4.90;3.23;;;;;;;;;;5115964;28;20202;-55
2022/04/26 19:05:50;;;;;;;4.50;3.27;;;;;;;;;;5115738;28;20197;-55
2022/04/26 19:08:16;;;;;;;6.43;3.87;;;;;;;;;;5114176;28;20222;-55
2022/04/26 19:13:27;;;;;;;4.70;3.80;;;;;;;;;;5115701;28;20221;-55
2022/04/26 19:15:58;;;;;;;7.60;4.10;;;;;;;;;;5115630;28;20251;-54